createdAt,value
2018-09-19T00:01:23.988Z,6.20
2018-09-19T00:03:51.706Z,6.00
2018-09-19T00:06:19.365Z,7.03
2018-09-19T00:08:47.079Z,6.47
2018-09-19T00:11:14.768Z,6.47
2018-09-19T00:13:42.507Z,5.40
2018-09-19T00:16:10.194Z,5.92
2018-09-19T00:18:37.932Z,6.80
2018-09-19T00:21:05.645Z,6.47
2018-09-19T00:23:33.290Z,6.53
2018-09-19T00:26:00.984Z,5.90
2018-09-19T00:28:28.728Z,6.80
2018-09-19T00:30:56.408Z,6.27
2018-09-19T00:33:24.071Z,6.30
2018-09-19T00:35:51.752Z,6.47
2018-09-19T00:38:19.426Z,6.12
2018-09-19T00:40:47.170Z,6.62
2018-09-19T00:43:14.854Z,6.30
2018-09-19T00:45:42.581Z,5.60
2018-09-19T00:48:10.222Z,5.80
2018-09-19T00:50:38.056Z,6.47
2018-09-19T00:53:05.883Z,5.83
2018-09-19T00:55:33.577Z,5.87
2018-09-19T00:58:01.303Z,6.80
2018-09-19T01:00:29.007Z,6.10
2018-09-19T01:02:56.735Z,6.80
2018-09-19T01:05:24.473Z,5.87
2018-09-19T01:07:52.105Z,5.77
2018-09-19T01:10:19.894Z,5.78
2018-09-19T01:12:47.581Z,6.30
2018-09-19T01:15:15.277Z,6.10
2018-09-19T01:17:42.984Z,5.93
2018-09-19T01:20:10.714Z,5.93
2018-09-19T01:22:38.437Z,5.87
2018-09-19T01:25:06.178Z,6.33
2018-09-19T01:27:33.887Z,5.87
2018-09-19T01:30:01.610Z,5.95
2018-09-19T01:32:29.317Z,5.97
2018-09-19T01:34:56.994Z,6.00
2018-09-19T01:37:24.695Z,6.37
2018-09-19T01:39:52.518Z,6.30
2018-09-19T01:42:20.226Z,5.90
2018-09-19T01:44:47.888Z,5.90
2018-09-19T01:47:15.557Z,5.63
2018-09-19T01:49:43.220Z,6.00
2018-09-19T01:52:10.866Z,5.90
2018-09-19T01:54:38.686Z,5.67
2018-09-19T01:57:06.410Z,6.20
2018-09-19T01:59:34.078Z,6.30
2018-09-19T02:02:01.785Z,6.23
2018-09-19T02:04:29.442Z,6.37
2018-09-19T02:06:57.116Z,5.45
2018-09-19T02:09:24.814Z,5.20
2018-09-19T02:11:52.549Z,5.97
2018-09-19T02:14:20.209Z,5.90
2018-09-19T02:16:47.870Z,6.10
2018-09-19T02:19:15.536Z,6.57
2018-09-19T02:21:43.214Z,6.05
2018-09-19T02:24:10.896Z,6.63
2018-09-19T02:26:38.551Z,6.10
2018-09-19T02:29:06.216Z,5.95
2018-09-19T02:31:33.862Z,5.93
2018-09-19T02:34:01.562Z,5.97
2018-09-19T02:36:29.343Z,6.60
2018-09-19T02:38:57.959Z,6.93
2018-09-19T02:41:25.750Z,5.80
2018-09-19T02:43:53.512Z,6.05
2018-09-19T02:46:21.184Z,5.60
2018-09-19T02:48:49.345Z,6.47
2018-09-19T02:51:17.507Z,6.05
2018-09-19T02:53:46.341Z,5.87
2018-09-19T02:56:14.035Z,6.17
2018-09-19T02:58:41.846Z,6.03
2018-09-19T03:01:09.529Z,6.80
2018-09-19T03:03:37.365Z,5.78
2018-09-19T03:06:05.074Z,6.67
2018-09-19T03:08:32.765Z,6.12
2018-09-19T03:11:00.438Z,6.40
2018-09-19T03:13:28.191Z,7.43
2018-09-19T03:15:55.886Z,8.87
2018-09-19T03:18:23.532Z,7.73
2018-09-19T03:20:51.218Z,7.85
2018-09-19T03:23:18.915Z,7.40
2018-09-19T03:25:46.575Z,7.67
2018-09-19T03:28:14.237Z,7.13
2018-09-19T03:30:41.944Z,7.33
2018-09-19T03:33:09.674Z,8.13
2018-09-19T03:35:37.428Z,6.75
2018-09-19T03:38:05.356Z,6.67
2018-09-19T03:40:33.341Z,6.50
2018-09-19T03:43:01.068Z,7.03
2018-09-19T03:45:28.781Z,8.00
2018-09-19T03:47:56.484Z,7.50
2018-09-19T03:50:24.146Z,7.03
2018-09-19T03:52:51.848Z,6.63
2018-09-19T03:55:19.484Z,6.60
2018-09-19T03:57:47.409Z,7.10
2018-09-19T04:00:15.158Z,6.77
2018-09-19T04:02:42.882Z,6.60
2018-09-19T04:05:10.551Z,6.13
2018-09-19T04:07:38.305Z,6.72
2018-09-19T04:10:06.013Z,6.53
2018-09-19T04:12:33.668Z,7.10
2018-09-19T04:15:01.375Z,6.70
2018-09-19T04:17:29.096Z,6.20
2018-09-19T04:19:56.809Z,6.73
2018-09-19T04:22:24.561Z,6.60
2018-09-19T04:24:52.241Z,6.62
2018-09-19T04:27:19.914Z,6.20
2018-09-19T04:29:47.628Z,6.63
2018-09-19T04:32:15.319Z,6.17
2018-09-19T04:34:43.018Z,6.50
2018-09-19T04:37:10.717Z,7.83
2018-09-19T04:39:38.514Z,6.40
2018-09-19T04:42:06.592Z,6.60
2018-09-19T04:44:34.280Z,6.30
2018-09-19T04:47:02.005Z,6.03
2018-09-19T04:49:29.677Z,6.57
2018-09-19T04:51:57.381Z,6.33
2018-09-19T04:54:25.073Z,6.50
2018-09-19T04:56:52.754Z,6.90
2018-09-19T04:59:20.461Z,7.03
2018-09-19T05:01:48.167Z,6.60
2018-09-19T05:04:15.811Z,6.60
2018-09-19T05:06:43.797Z,7.27
2018-09-19T05:09:11.845Z,6.93
2018-09-19T05:11:39.725Z,7.90
2018-09-19T05:14:07.888Z,6.60
2018-09-19T05:16:35.787Z,6.45
2018-09-19T05:19:03.730Z,6.95
2018-09-19T05:21:31.375Z,6.90
2018-09-19T05:23:59.012Z,7.55
2018-09-19T05:26:26.702Z,9.20
2018-09-19T05:29:00.502Z,9.90
2018-09-19T05:31:28.168Z,9.17
2018-09-19T05:33:55.790Z,7.67
2018-09-19T05:36:23.531Z,7.17
2018-09-19T05:38:51.196Z,8.00
2018-09-19T05:41:18.794Z,7.63
2018-09-19T05:43:46.599Z,7.57
2018-09-19T05:46:14.238Z,8.40
2018-09-19T05:48:41.867Z,8.13
2018-09-19T05:51:09.553Z,7.45
2018-09-19T05:53:37.164Z,7.70
2018-09-19T05:56:04.818Z,7.63
2018-09-19T05:58:32.483Z,8.13
2018-09-19T06:01:00.107Z,7.53
2018-09-19T06:03:27.738Z,7.73
2018-09-19T06:05:55.355Z,7.60
2018-09-19T06:08:23.000Z,7.53
2018-09-19T06:10:50.624Z,7.57
2018-09-19T06:13:18.255Z,8.53
2018-09-19T06:15:45.896Z,7.60
2018-09-19T06:18:13.632Z,7.37
2018-09-19T06:20:41.242Z,7.78
2018-09-19T06:23:08.867Z,6.90
2018-09-19T06:25:36.518Z,7.13
2018-09-19T06:28:04.201Z,8.50
2018-09-19T06:30:31.822Z,8.30
2018-09-19T06:32:59.504Z,7.57
2018-09-19T06:35:27.152Z,8.40
2018-09-19T06:37:54.798Z,8.50
2018-09-19T06:40:22.523Z,8.67
2018-09-19T06:42:50.128Z,9.30
2018-09-19T06:45:17.750Z,8.73
2018-09-19T06:47:45.383Z,8.98
2018-09-19T06:50:13.039Z,8.93
2018-09-19T06:52:41.806Z,8.67
2018-09-19T06:55:09.470Z,9.17
2018-09-19T06:57:37.130Z,9.17
2018-09-19T07:00:05.325Z,8.40
2018-09-19T07:02:32.969Z,8.87
2018-09-19T07:05:00.620Z,8.80
2018-09-19T07:07:28.304Z,9.28
2018-09-19T07:09:55.923Z,8.90
2018-09-19T07:12:23.572Z,10.10
2018-09-19T07:14:51.196Z,9.10
2018-09-19T07:17:18.805Z,9.23
2018-09-19T07:19:47.283Z,9.60
2018-09-19T07:22:14.910Z,9.37
2018-09-19T07:24:42.529Z,9.58
2018-09-19T07:27:10.206Z,8.83
2018-09-19T07:29:37.828Z,9.20
2018-09-19T07:32:05.643Z,9.77
2018-09-19T07:34:33.312Z,10.10
2018-09-19T07:37:00.957Z,9.90
2018-09-19T07:39:28.571Z,9.28
2018-09-19T07:41:56.257Z,9.30
2018-09-19T07:44:23.956Z,10.57
2018-09-19T07:46:51.605Z,10.20
2018-09-19T07:49:19.307Z,9.47
2018-09-19T07:51:46.931Z,9.65
2018-09-19T07:54:14.564Z,10.37
2018-09-19T07:56:42.272Z,9.33
2018-09-19T07:59:09.923Z,9.53
2018-09-19T08:01:37.568Z,9.73
2018-09-19T08:04:05.224Z,8.57
2018-09-19T08:06:32.899Z,10.07
2018-09-19T08:09:00.646Z,9.60
2018-09-19T08:11:28.327Z,8.38
2018-09-19T08:13:55.948Z,9.47
2018-09-19T08:16:23.582Z,9.30
2018-09-19T08:18:54.647Z,9.23
2018-09-19T08:21:22.261Z,9.60
2018-09-19T08:23:49.912Z,9.55
2018-09-19T08:26:17.539Z,10.23
2018-09-19T08:28:45.221Z,11.87
2018-09-19T08:31:12.947Z,12.73
2018-09-19T08:33:40.567Z,11.90
2018-09-19T08:36:08.269Z,14.03
2018-09-19T08:38:35.955Z,13.22
2018-09-19T08:41:03.577Z,14.27
2018-09-19T08:43:31.288Z,14.10
2018-09-19T08:45:58.953Z,13.73
2018-09-19T08:48:26.632Z,14.87
2018-09-19T08:50:54.275Z,15.32
2018-09-19T08:53:21.909Z,14.77
2018-09-19T08:55:49.552Z,14.30
2018-09-19T08:58:17.187Z,13.65
2018-09-19T09:00:44.878Z,14.80
2018-09-19T09:03:12.622Z,14.40
2018-09-19T09:05:40.268Z,15.00
2018-09-19T09:08:08.090Z,14.97
2018-09-19T09:10:35.688Z,15.27
2018-09-19T09:13:03.352Z,15.32
2018-09-19T09:15:31.003Z,13.67
2018-09-19T09:17:58.658Z,14.27
2018-09-19T09:20:26.273Z,14.63
2018-09-19T09:22:53.965Z,13.03
2018-09-19T09:25:21.597Z,13.40
2018-09-19T09:27:49.282Z,12.35
2018-09-19T09:30:16.941Z,13.00
2018-09-19T09:32:44.590Z,11.80
2018-09-19T09:35:12.265Z,11.23
2018-09-19T09:37:39.888Z,12.27
2018-09-19T09:40:07.516Z,11.60
2018-09-19T09:42:35.183Z,11.67
2018-09-19T09:45:02.844Z,12.50
2018-09-19T09:47:30.499Z,11.43
2018-09-19T09:49:58.131Z,11.03
2018-09-19T09:52:25.779Z,10.13
2018-09-19T09:54:53.404Z,11.30
2018-09-19T09:57:21.028Z,11.75
2018-09-19T09:59:48.648Z,10.80
2018-09-19T10:02:16.284Z,11.07
2018-09-19T10:04:43.918Z,10.23
2018-09-19T10:07:11.607Z,10.10
2018-09-19T10:09:39.309Z,8.80
2018-09-19T10:12:06.947Z,7.50
2018-09-19T10:14:34.590Z,7.67
2018-09-19T10:17:02.210Z,7.50
2018-09-19T10:19:30.099Z,8.50
2018-09-19T10:21:57.831Z,7.27
2018-09-19T10:24:25.536Z,7.65
2018-09-19T10:26:53.244Z,8.10
2018-09-19T10:29:20.898Z,8.50
2018-09-19T10:31:48.550Z,7.58
2018-09-19T10:34:16.223Z,7.13
2018-09-19T10:36:43.878Z,7.13
2018-09-19T10:39:11.506Z,7.70
2018-09-19T10:41:39.111Z,7.53
2018-09-19T10:44:06.805Z,7.05
2018-09-19T10:46:34.514Z,7.60
2018-09-19T10:49:02.131Z,7.27
2018-09-19T10:51:29.772Z,7.07
2018-09-19T10:53:57.436Z,7.03
2018-09-19T10:56:25.042Z,8.18
2018-09-19T10:58:52.784Z,7.53
2018-09-19T11:01:20.474Z,6.23
2018-09-19T11:03:48.115Z,6.30
2018-09-19T11:06:15.778Z,6.20
2018-09-19T11:08:43.462Z,6.00
2018-09-19T11:11:11.089Z,5.80
2018-09-19T11:13:38.739Z,6.07
2018-09-19T11:16:06.406Z,5.42
2018-09-19T11:18:34.074Z,5.20
2018-09-19T11:21:02.927Z,4.60
2018-09-19T11:23:30.739Z,5.83
2018-09-19T11:25:58.461Z,10.27
2018-09-19T11:28:26.097Z,5.03
2018-09-19T11:30:53.764Z,5.03
2018-09-19T11:33:21.430Z,4.92
2018-09-19T11:35:49.091Z,5.43
2018-09-19T11:38:16.709Z,4.70
2018-09-19T11:40:44.385Z,5.17
2018-09-19T11:43:12.027Z,4.67
2018-09-19T11:45:39.729Z,5.00
2018-09-19T11:48:07.484Z,4.50
2018-09-19T11:50:35.131Z,4.97
2018-09-19T11:53:02.852Z,4.53
2018-09-19T11:55:30.508Z,4.77
2018-09-19T11:57:58.177Z,4.80
2018-09-19T12:00:25.820Z,4.80
2018-09-19T12:02:53.442Z,4.63
2018-09-19T12:05:21.118Z,4.97
2018-09-19T12:07:48.768Z,4.60
2018-09-19T12:10:16.645Z,4.70
2018-09-19T12:12:44.306Z,4.43
2018-09-19T12:15:11.933Z,4.20
2018-09-19T12:17:39.590Z,3.90
2018-09-19T12:20:07.329Z,4.87
2018-09-19T12:22:35.029Z,7.37
2018-09-19T12:25:02.796Z,3.90
2018-09-19T12:27:30.460Z,3.42
2018-09-19T12:29:58.091Z,4.03
2018-09-19T12:32:25.715Z,5.30
2018-09-19T12:34:53.412Z,4.93
2018-09-19T12:37:21.056Z,4.93
2018-09-19T12:39:48.700Z,6.58
2018-09-19T12:42:16.342Z,5.40
2018-09-19T12:44:43.976Z,4.50
2018-09-19T12:47:11.666Z,3.50
2018-09-19T12:49:39.307Z,4.23
2018-09-19T12:52:06.991Z,3.42
2018-09-19T12:54:34.659Z,3.27
2018-09-19T12:57:02.306Z,2.80
2018-09-19T12:59:30.019Z,5.53
2018-09-19T13:01:57.699Z,3.57
2018-09-19T13:04:25.373Z,2.97
2018-09-19T13:06:53.053Z,3.30
2018-09-19T13:09:20.742Z,4.07
2018-09-19T13:11:48.411Z,2.87
2018-09-19T13:14:16.061Z,3.40
2018-09-19T13:16:43.705Z,4.53
2018-09-19T13:19:12.439Z,3.27
2018-09-19T13:21:40.056Z,2.40
2018-09-19T13:24:07.676Z,2.70
2018-09-19T13:26:35.399Z,3.08
2018-09-19T13:29:03.063Z,2.93
2018-09-19T13:31:30.672Z,3.60
2018-09-19T13:33:58.386Z,3.10
2018-09-19T13:36:26.042Z,3.00
2018-09-19T13:38:57.013Z,2.55
2018-09-19T13:41:24.851Z,3.10
2018-09-19T13:43:52.530Z,3.10
2018-09-19T13:46:20.191Z,3.10
2018-09-19T13:48:52.356Z,2.63
2018-09-19T13:51:22.195Z,3.33
2018-09-19T13:53:49.826Z,3.10
2018-09-19T13:56:17.532Z,3.33
2018-09-19T13:58:45.915Z,3.10
2018-09-19T14:01:15.746Z,2.83
2018-09-19T14:03:43.667Z,2.90
2018-09-19T14:06:11.390Z,3.40
2018-09-19T14:08:39.074Z,5.40
2018-09-19T14:11:06.792Z,3.22
2018-09-19T14:13:34.441Z,3.60
2018-09-19T14:16:02.148Z,3.67
2018-09-19T14:18:29.858Z,3.20
2018-09-19T14:20:57.519Z,3.30
2018-09-19T14:23:25.188Z,3.67
2018-09-19T14:25:52.838Z,5.40
2018-09-19T14:28:20.552Z,4.23
2018-09-19T14:30:48.207Z,4.47
2018-09-19T14:33:16.045Z,3.37
2018-09-19T14:35:43.870Z,3.00
2018-09-19T14:38:13.389Z,3.37
2018-09-19T14:40:41.192Z,3.85
2018-09-19T14:43:08.961Z,3.70
2018-09-19T14:45:36.785Z,3.40
2018-09-19T14:48:04.611Z,3.40
2018-09-19T14:50:32.286Z,3.00
2018-09-19T14:53:00.035Z,3.20
2018-09-19T14:55:27.720Z,3.10
2018-09-19T14:57:55.348Z,3.33
2018-09-19T15:00:22.991Z,3.27
2018-09-19T15:02:50.806Z,3.05
2018-09-19T15:05:18.482Z,3.17
2018-09-19T15:07:46.112Z,3.20
2018-09-19T15:10:13.927Z,3.20
2018-09-19T15:12:41.548Z,3.30
2018-09-19T15:15:09.247Z,3.53
2018-09-19T15:17:36.938Z,3.72
2018-09-19T15:20:04.777Z,3.90
2018-09-19T15:22:32.430Z,3.60
2018-09-19T15:25:00.163Z,3.40
2018-09-19T15:27:27.803Z,3.52
2018-09-19T15:29:55.417Z,3.57
2018-09-19T15:32:23.101Z,4.57
2018-09-19T15:34:50.760Z,3.83
2018-09-19T15:37:18.416Z,4.43
2018-09-19T15:39:46.327Z,3.35
2018-09-19T15:42:21.259Z,4.00
2018-09-19T15:44:49.043Z,3.80
2018-09-19T15:47:16.731Z,3.43
2018-09-19T15:49:44.499Z,3.80
2018-09-19T15:52:16.312Z,3.85
2018-09-19T15:54:44.007Z,3.70
2018-09-19T15:57:11.660Z,3.60
2018-09-19T15:59:39.422Z,3.80
2018-09-19T16:02:07.155Z,3.90
2018-09-19T16:04:34.824Z,3.90
2018-09-19T16:07:02.677Z,4.00
2018-09-19T16:09:30.562Z,3.63
2018-09-19T16:11:58.272Z,4.60
2018-09-19T16:14:26.071Z,3.97
2018-09-19T16:16:53.802Z,3.60
2018-09-19T16:19:22.932Z,3.70
2018-09-19T16:21:50.675Z,3.60
2018-09-19T16:24:18.705Z,3.73
2018-09-19T16:26:46.394Z,3.50
2018-09-19T16:29:14.150Z,3.30
2018-09-19T16:31:41.983Z,3.12
2018-09-19T16:34:09.881Z,3.40
2018-09-19T16:36:37.541Z,3.77
2018-09-19T16:39:08.522Z,3.57
2018-09-19T16:41:36.211Z,3.57
2018-09-19T16:44:04.050Z,3.60
2018-09-19T16:46:31.802Z,18.60
2018-09-19T16:48:59.414Z,7.03
2018-09-19T16:51:27.064Z,7.47
2018-09-19T16:53:55.379Z,3.83
2018-09-19T16:56:23.072Z,3.35
2018-09-19T16:58:50.977Z,3.70
2018-09-19T17:01:18.612Z,3.65
2018-09-19T17:03:46.250Z,3.70
2018-09-19T17:06:14.030Z,3.80
2018-09-19T17:08:41.653Z,3.67
2018-09-19T17:11:09.321Z,3.60
2018-09-19T17:13:36.994Z,4.08
2018-09-19T17:16:04.671Z,5.00
2018-09-19T17:18:32.347Z,7.07
2018-09-19T17:21:05.884Z,6.03
2018-09-19T17:23:33.884Z,4.83
2018-09-19T17:26:02.150Z,18.47
2018-09-19T17:28:29.971Z,10.77
2018-09-19T17:30:57.773Z,11.10
2018-09-19T17:33:33.188Z,5.63
2018-09-19T17:36:00.878Z,4.40
2018-09-19T17:38:28.652Z,5.70
2018-09-19T17:40:56.473Z,16.20
2018-09-19T17:43:24.172Z,9.88
2018-09-19T17:45:51.932Z,5.10
2018-09-19T17:48:19.653Z,4.00
2018-09-19T17:50:47.466Z,4.60
2018-09-19T17:53:15.373Z,5.67
2018-09-19T17:55:43.111Z,6.70
2018-09-19T17:58:10.966Z,5.30
2018-09-19T18:00:38.746Z,6.07
2018-09-19T18:03:06.613Z,5.10
2018-09-19T18:05:34.698Z,4.97
2018-09-19T18:08:02.716Z,5.00
2018-09-19T18:10:30.599Z,4.65
2018-09-19T18:12:58.538Z,4.22
2018-09-19T18:15:26.685Z,4.70
2018-09-19T18:17:54.639Z,11.47
2018-09-19T18:20:23.016Z,13.83
2018-09-19T18:22:51.330Z,6.20
2018-09-19T18:25:19.089Z,4.57
2018-09-19T18:27:46.835Z,4.40
2018-09-19T18:30:14.624Z,4.53
2018-09-19T18:32:42.464Z,4.50
2018-09-19T18:35:10.552Z,3.95
2018-09-19T18:37:38.380Z,4.77
2018-09-19T18:40:06.578Z,4.43
2018-09-19T18:42:34.805Z,5.13
2018-09-19T18:45:04.018Z,5.17
2018-09-19T18:47:32.297Z,4.97
2018-09-19T18:50:00.851Z,4.37
2018-09-19T18:52:29.119Z,8.47
2018-09-19T18:54:57.832Z,5.50
2018-09-19T18:57:26.278Z,5.53
2018-09-19T18:59:54.397Z,4.93
2018-09-19T19:02:22.944Z,5.47
2018-09-19T19:04:51.164Z,4.83
2018-09-19T19:07:19.280Z,4.67
2018-09-19T19:09:47.870Z,5.73
2018-09-19T19:12:16.051Z,5.03
2018-09-19T19:14:44.412Z,7.27
2018-09-19T19:17:12.851Z,9.53
2018-09-19T19:19:41.156Z,11.57
2018-09-19T19:22:09.360Z,5.10
2018-09-19T19:24:37.632Z,5.23
2018-09-19T19:27:06.449Z,4.73
2018-09-19T19:29:35.256Z,5.03
2018-09-19T19:32:03.197Z,5.17
2018-09-19T19:34:31.281Z,5.30
2018-09-19T19:36:59.775Z,5.03
2018-09-19T19:39:27.570Z,4.90
2018-09-19T19:41:55.394Z,4.97
2018-09-19T19:44:23.100Z,4.90
2018-09-19T19:46:50.967Z,4.50
2018-09-19T19:49:18.797Z,5.12
2018-09-19T19:54:36.675Z,5.03
2018-09-19T19:57:04.531Z,5.00
2018-09-19T19:59:32.312Z,4.83
2018-09-19T20:02:00.057Z,5.00
2018-09-19T20:04:27.766Z,6.00
2018-09-19T20:06:55.553Z,4.92
2018-09-19T20:09:23.657Z,5.20
2018-09-19T20:11:51.748Z,4.87
2018-09-19T20:14:19.565Z,4.03
2018-09-19T20:16:47.244Z,5.63
2018-09-19T20:19:14.969Z,5.05
2018-09-19T20:21:42.721Z,7.65
2018-09-19T20:24:10.537Z,8.73
2018-09-19T20:26:38.753Z,6.77
2018-09-19T20:29:06.493Z,4.90
2018-09-19T20:31:34.229Z,9.53
2018-09-19T20:34:01.999Z,20.43
2018-09-19T20:36:29.885Z,7.13
2018-09-19T20:38:57.711Z,4.80
2018-09-19T20:41:25.478Z,5.07
2018-09-19T20:43:53.301Z,4.93
2018-09-19T20:46:21.048Z,4.20
2018-09-19T20:48:48.762Z,4.60
2018-09-19T20:51:16.509Z,5.43
2018-09-19T20:53:44.216Z,5.57
2018-09-19T20:56:12.115Z,4.53
2018-09-19T20:58:40.019Z,4.90
2018-09-19T21:01:07.737Z,4.70
2018-09-19T21:03:35.758Z,4.70
2018-09-19T21:06:03.702Z,4.13
2018-09-19T21:08:31.615Z,5.03
2018-09-19T21:10:59.326Z,7.10
2018-09-19T21:13:27.108Z,5.80
2018-09-19T21:15:54.864Z,5.70
2018-09-19T21:18:22.606Z,4.73
2018-09-19T21:20:50.313Z,5.53
2018-09-19T21:23:18.210Z,5.50
2018-09-19T21:25:46.132Z,5.15
2018-09-19T21:28:13.825Z,5.08
2018-09-19T21:30:41.543Z,5.50
2018-09-19T21:33:09.256Z,5.80
2018-09-19T21:35:36.974Z,5.20
2018-09-19T21:38:05.863Z,4.40
2018-09-19T21:40:33.712Z,4.43
2018-09-19T21:43:01.422Z,4.83
2018-09-19T21:45:29.137Z,4.10
2018-09-19T21:47:56.930Z,3.77
2018-09-19T21:50:24.871Z,4.57
2018-09-19T21:52:52.777Z,4.57
2018-09-19T21:55:20.768Z,4.77
2018-09-19T21:57:48.468Z,4.60
2018-09-19T22:00:16.283Z,4.40
2018-09-19T22:02:44.023Z,4.90
2018-09-19T22:05:11.804Z,4.75
2018-09-19T22:07:39.459Z,4.45
2018-09-19T22:10:07.228Z,4.20
2018-09-19T22:12:34.910Z,4.70
2018-09-19T22:15:02.693Z,3.60
2018-09-19T22:17:30.397Z,3.80
2018-09-19T22:19:58.106Z,4.13
2018-09-19T22:22:25.979Z,4.50
2018-09-19T22:24:53.693Z,4.60
2018-09-19T22:27:21.345Z,4.67
2018-09-19T22:29:49.133Z,4.53
2018-09-19T22:32:16.872Z,4.33
2018-09-19T22:34:44.557Z,4.13
2018-09-19T22:37:12.348Z,5.12
2018-09-19T22:39:40.047Z,4.72
2018-09-19T22:42:07.769Z,4.53
2018-09-19T22:44:35.429Z,4.33
2018-09-19T22:47:03.130Z,4.43
2018-09-19T22:49:30.809Z,4.83
2018-09-19T22:51:58.513Z,4.95
2018-09-19T22:54:26.207Z,5.03
2018-09-19T22:56:53.930Z,4.77
2018-09-19T22:59:21.612Z,4.10
2018-09-19T23:01:49.360Z,4.43
2018-09-19T23:04:17.015Z,4.30
2018-09-19T23:06:44.731Z,3.93
2018-09-19T23:09:12.439Z,4.55
2018-09-19T23:11:40.107Z,4.27
2018-09-19T23:14:07.790Z,4.33
2018-09-19T23:16:35.495Z,4.22
2018-09-19T23:19:03.158Z,4.10
2018-09-19T23:21:30.855Z,4.07
2018-09-19T23:23:58.852Z,4.27
2018-09-19T23:26:26.539Z,3.90
2018-09-19T23:28:54.314Z,4.63
2018-09-19T23:31:22.033Z,3.90
2018-09-19T23:33:49.705Z,4.97
2018-09-19T23:36:17.397Z,4.25
2018-09-19T23:38:45.114Z,4.08
2018-09-19T23:41:12.763Z,4.40
2018-09-19T23:43:40.450Z,4.53
2018-09-19T23:46:08.171Z,4.17
2018-09-19T23:48:35.980Z,4.17
2018-09-19T23:51:03.756Z,4.33
2018-09-19T23:53:31.479Z,4.15
2018-09-19T23:55:59.140Z,4.30
2018-09-19T23:58:26.834Z,4.17
